sensor_id;sensor_type;location;lat;lon;timestamp;temperature;humidity
50804;DHT22;37205;51.434;6.756;2024-02-26T00:00:29;7.00;44.50
50804;DHT22;37205;51.434;6.756;2024-02-26T00:02:56;7.00;79.40
50804;DHT22;37205;51.434;6.756;2024-02-26T00:05:21;7.00;99.90
50804;DHT22;37205;51.434;6.756;2024-02-26T00:07:47;7.00;99.90
50804;DHT22;37205;51.434;6.756;2024-02-26T00:10:14;6.90;99.90
50804;DHT22;37205;51.434;6.756;2024-02-26T00:12:39;6.90;11.80
50804;DHT22;37205;51.434;6.756;2024-02-26T00:15:07;6.90;4.70
50804;DHT22;37205;51.434;6.756;2024-02-26T00:17:33;6.90;99.90
50804;DHT22;37205;51.434;6.756;2024-02-26T00:19:58;6.90;99.90
50804;DHT22;37205;51.434;6.756;2024-02-26T00:22:24;6.90;1.00
50804;DHT22;37205;51.434;6.756;2024-02-26T00:24:49;6.90;1.00
50804;DHT22;37205;51.434;6.756;2024-02-26T00:27:15;6.90;1.00
50804;DHT22;37205;51.434;6.756;2024-02-26T00:29:40;6.90;1.00
50804;DHT22;37205;51.434;6.756;2024-02-26T00:32:06;6.90;99.90
50804;DHT22;37205;51.434;6.756;2024-02-26T00:34:31;6.90;1.00
50804;DHT22;37205;51.434;6.756;2024-02-26T00:36:57;6.90;1.00
50804;DHT22;37205;51.434;6.756;2024-02-26T00:39:22;6.90;1.00
50804;DHT22;37205;51.434;6.756;2024-02-26T00:41:48;6.90;99.90
50804;DHT22;37205;51.434;6.756;2024-02-26T00:44:13;6.90;1.00
50804;DHT22;37205;51.434;6.756;2024-02-26T00:46:39;6.90;1.00
50804;DHT22;37205;51.434;6.756;2024-02-26T00:49:04;6.80;99.90
50804;DHT22;37205;51.434;6.756;2024-02-26T00:51:30;6.80;1.00
50804;DHT22;37205;51.434;6.756;2024-02-26T00:53:56;6.80;93.80
50804;DHT22;37205;51.434;6.756;2024-02-26T00:56:22;6.80;1.00
50804;DHT22;37205;51.434;6.756;2024-02-26T00:58:47;6.80;99.90
50804;DHT22;37205;51.434;6.756;2024-02-26T01:01:13;6.80;99.90
50804;DHT22;37205;51.434;6.756;2024-02-26T01:03:39;6.80;99.90
50804;DHT22;37205;51.434;6.756;2024-02-26T01:06:04;6.80;29.00
50804;DHT22;37205;51.434;6.756;2024-02-26T01:08:30;6.80;99.90
50804;DHT22;37205;51.434;6.756;2024-02-26T01:10:57;6.80;99.90
50804;DHT22;37205;51.434;6.756;2024-02-26T01:13:22;6.80;41.50
50804;DHT22;37205;51.434;6.756;2024-02-26T01:15:48;6.90;99.90
50804;DHT22;37205;51.434;6.756;2024-02-26T01:18:13;6.90;99.90
50804;DHT22;37205;51.434;6.756;2024-02-26T01:20:39;6.90;99.90
50804;DHT22;37205;51.434;6.756;2024-02-26T01:23:04;6.90;80.20
50804;DHT22;37205;51.434;6.756;2024-02-26T01:25:30;6.90;1.00
50804;DHT22;37205;51.434;6.756;2024-02-26T01:27:56;6.80;88.60
50804;DHT22;37205;51.434;6.756;2024-02-26T01:30:21;6.90;99.90
50804;DHT22;37205;51.434;6.756;2024-02-26T01:32:47;6.90;99.90
50804;DHT22;37205;51.434;6.756;2024-02-26T01:35:12;6.90;11.20
50804;DHT22;37205;51.434;6.756;2024-02-26T01:37:38;7.00;1.00
50804;DHT22;37205;51.434;6.756;2024-02-26T01:40:04;7.00;1.00
50804;DHT22;37205;51.434;6.756;2024-02-26T01:42:31;7.00;99.90
50804;DHT22;37205;51.434;6.756;2024-02-26T01:44:58;7.00;65.20
50804;DHT22;37205;51.434;6.756;2024-02-26T01:47:23;7.10;1.00
50804;DHT22;37205;51.434;6.756;2024-02-26T01:49:49;7.00;35.20
50804;DHT22;37205;51.434;6.756;2024-02-26T01:52:15;7.00;65.40
50804;DHT22;37205;51.434;6.756;2024-02-26T01:54:42;7.00;53.60
50804;DHT22;37205;51.434;6.756;2024-02-26T01:57:10;7.00;99.90
50804;DHT22;37205;51.434;6.756;2024-02-26T01:59:36;7.00;99.90
50804;DHT22;37205;51.434;6.756;2024-02-26T02:02:03;7.00;29.40
50804;DHT22;37205;51.434;6.756;2024-02-26T02:04:31;7.00;99.90
50804;DHT22;37205;51.434;6.756;2024-02-26T02:06:58;7.00;1.00
50804;DHT22;37205;51.434;6.756;2024-02-26T02:09:25;7.00;99.90
50804;DHT22;37205;51.434;6.756;2024-02-26T02:11:51;7.00;16.00
50804;DHT22;37205;51.434;6.756;2024-02-26T02:14:17;7.00;99.90
50804;DHT22;37205;51.434;6.756;2024-02-26T02:16:43;6.90;1.00
50804;DHT22;37205;51.434;6.756;2024-02-26T02:19:08;6.90;1.00
50804;DHT22;37205;51.434;6.756;2024-02-26T02:21:34;6.90;83.10
50804;DHT22;37205;51.434;6.756;2024-02-26T02:23:59;6.90;99.90
50804;DHT22;37205;51.434;6.756;2024-02-26T02:26:25;6.80;99.90
50804;DHT22;37205;51.434;6.756;2024-02-26T02:28:50;6.80;99.90
50804;DHT22;37205;51.434;6.756;2024-02-26T02:31:16;6.80;99.90
50804;DHT22;37205;51.434;6.756;2024-02-26T02:33:42;6.80;1.00
50804;DHT22;37205;51.434;6.756;2024-02-26T02:36:08;6.80;1.00
50804;DHT22;37205;51.434;6.756;2024-02-26T02:38:36;6.80;1.00
50804;DHT22;37205;51.434;6.756;2024-02-26T02:41:02;6.80;1.00
50804;DHT22;37205;51.434;6.756;2024-02-26T02:43:27;6.80;14.80
50804;DHT22;37205;51.434;6.756;2024-02-26T02:45:53;6.80;99.90
50804;DHT22;37205;51.434;6.756;2024-02-26T02:48:18;6.80;1.00
50804;DHT22;37205;51.434;6.756;2024-02-26T02:50:45;6.80;99.90
50804;DHT22;37205;51.434;6.756;2024-02-26T02:53:11;6.70;1.00
50804;DHT22;37205;51.434;6.756;2024-02-26T02:55:36;6.80;1.00
50804;DHT22;37205;51.434;6.756;2024-02-26T02:58:02;6.80;19.60
50804;DHT22;37205;51.434;6.756;2024-02-26T03:00:27;6.80;97.30
50804;DHT22;37205;51.434;6.756;2024-02-26T03:02:54;6.70;99.90
50804;DHT22;37205;51.434;6.756;2024-02-26T03:05:19;6.70;1.00
50804;DHT22;37205;51.434;6.756;2024-02-26T03:07:45;6.70;99.90
50804;DHT22;37205;51.434;6.756;2024-02-26T03:10:10;6.70;99.90
50804;DHT22;37205;51.434;6.756;2024-02-26T03:12:36;6.70;99.90
50804;DHT22;37205;51.434;6.756;2024-02-26T03:15:02;6.70;99.90
50804;DHT22;37205;51.434;6.756;2024-02-26T03:17:29;6.70;1.00
50804;DHT22;37205;51.434;6.756;2024-02-26T03:19:54;6.70;18.20
50804;DHT22;37205;51.434;6.756;2024-02-26T03:22:20;6.70;99.90
50804;DHT22;37205;51.434;6.756;2024-02-26T03:24:46;6.70;99.90
50804;DHT22;37205;51.434;6.756;2024-02-26T03:27:12;6.60;99.90
50804;DHT22;37205;51.434;6.756;2024-02-26T03:29:38;6.60;99.90
50804;DHT22;37205;51.434;6.756;2024-02-26T03:32:04;6.60;18.30
50804;DHT22;37205;51.434;6.756;2024-02-26T03:34:30;6.50;99.90
50804;DHT22;37205;51.434;6.756;2024-02-26T03:36:56;6.50;99.90
50804;DHT22;37205;51.434;6.756;2024-02-26T03:39:21;6.40;99.90
50804;DHT22;37205;51.434;6.756;2024-02-26T03:41:48;6.50;99.90
50804;DHT22;37205;51.434;6.756;2024-02-26T03:44:13;6.40;99.90
50804;DHT22;37205;51.434;6.756;2024-02-26T03:46:39;6.50;99.90
50804;DHT22;37205;51.434;6.756;2024-02-26T03:49:04;6.50;99.90
50804;DHT22;37205;51.434;6.756;2024-02-26T03:51:30;6.40;99.90
50804;DHT22;37205;51.434;6.756;2024-02-26T03:53:57;6.40;99.90
50804;DHT22;37205;51.434;6.756;2024-02-26T03:56:25;6.30;99.90
50804;DHT22;37205;51.434;6.756;2024-02-26T03:58:50;6.30;99.90
50804;DHT22;37205;51.434;6.756;2024-02-26T04:01:16;6.30;99.90
50804;DHT22;37205;51.434;6.756;2024-02-26T04:03:41;6.30;1.00
50804;DHT22;37205;51.434;6.756;2024-02-26T04:06:10;6.20;1.00
50804;DHT22;37205;51.434;6.756;2024-02-26T04:08:37;6.20;1.00
50804;DHT22;37205;51.434;6.756;2024-02-26T04:11:03;6.20;1.00
50804;DHT22;37205;51.434;6.756;2024-02-26T04:13:36;6.20;1.00
50804;DHT22;37205;51.434;6.756;2024-02-26T04:16:04;6.20;1.00
50804;DHT22;37205;51.434;6.756;2024-02-26T04:18:30;6.20;1.00
50804;DHT22;37205;51.434;6.756;2024-02-26T04:20:55;6.10;1.00
50804;DHT22;37205;51.434;6.756;2024-02-26T04:23:22;6.10;1.00
50804;DHT22;37205;51.434;6.756;2024-02-26T04:25:47;6.10;1.00
50804;DHT22;37205;51.434;6.756;2024-02-26T04:28:13;6.10;1.00
50804;DHT22;37205;51.434;6.756;2024-02-26T04:30:39;6.10;1.00
50804;DHT22;37205;51.434;6.756;2024-02-26T04:33:04;6.10;1.00
50804;DHT22;37205;51.434;6.756;2024-02-26T04:35:30;6.10;1.00
50804;DHT22;37205;51.434;6.756;2024-02-26T04:37:56;6.10;1.00
50804;DHT22;37205;51.434;6.756;2024-02-26T04:40:21;6.00;1.00
50804;DHT22;37205;51.434;6.756;2024-02-26T04:42:47;6.10;1.00
50804;DHT22;37205;51.434;6.756;2024-02-26T04:45:12;6.00;1.00
50804;DHT22;37205;51.434;6.756;2024-02-26T04:47:38;6.00;1.00
50804;DHT22;37205;51.434;6.756;2024-02-26T04:50:04;6.10;1.00
50804;DHT22;37205;51.434;6.756;2024-02-26T04:52:30;6.00;1.00
50804;DHT22;37205;51.434;6.756;2024-02-26T04:54:55;6.10;1.00
50804;DHT22;37205;51.434;6.756;2024-02-26T04:57:21;6.10;1.00
50804;DHT22;37205;51.434;6.756;2024-02-26T04:59:47;6.10;1.00
50804;DHT22;37205;51.434;6.756;2024-02-26T05:02:13;6.00;1.00
50804;DHT22;37205;51.434;6.756;2024-02-26T05:04:39;6.10;1.00
50804;DHT22;37205;51.434;6.756;2024-02-26T05:07:04;6.10;1.00
50804;DHT22;37205;51.434;6.756;2024-02-26T05:09:30;6.10;1.00
50804;DHT22;37205;51.434;6.756;2024-02-26T05:11:55;6.10;1.00
50804;DHT22;37205;51.434;6.756;2024-02-26T05:14:21;6.10;1.00
50804;DHT22;37205;51.434;6.756;2024-02-26T05:16:47;6.00;1.00
50804;DHT22;37205;51.434;6.756;2024-02-26T05:19:13;6.00;1.00
50804;DHT22;37205;51.434;6.756;2024-02-26T05:21:38;5.90;1.00
50804;DHT22;37205;51.434;6.756;2024-02-26T05:24:05;6.00;1.00
50804;DHT22;37205;51.434;6.756;2024-02-26T05:26:31;5.90;1.00
50804;DHT22;37205;51.434;6.756;2024-02-26T05:28:56;5.90;1.00
50804;DHT22;37205;51.434;6.756;2024-02-26T05:31:25;5.80;1.00
50804;DHT22;37205;51.434;6.756;2024-02-26T05:33:51;5.80;1.00
50804;DHT22;37205;51.434;6.756;2024-02-26T05:36:20;5.80;1.40
50804;DHT22;37205;51.434;6.756;2024-02-26T05:38:47;5.80;1.00
50804;DHT22;37205;51.434;6.756;2024-02-26T05:41:15;5.80;5.70
50804;DHT22;37205;51.434;6.756;2024-02-26T05:43:41;5.70;1.00
50804;DHT22;37205;51.434;6.756;2024-02-26T05:46:06;5.80;8.20
50804;DHT22;37205;51.434;6.756;2024-02-26T05:48:32;5.70;17.10
50804;DHT22;37205;51.434;6.756;2024-02-26T05:50:57;5.70;22.60
50804;DHT22;37205;51.434;6.756;2024-02-26T05:53:23;5.70;21.00
50804;DHT22;37205;51.434;6.756;2024-02-26T05:55:48;5.70;19.10
50804;DHT22;37205;51.434;6.756;2024-02-26T05:58:14;5.60;13.00
50804;DHT22;37205;51.434;6.756;2024-02-26T06:00:39;5.70;16.00
50804;DHT22;37205;51.434;6.756;2024-02-26T06:03:08;5.60;19.70
50804;DHT22;37205;51.434;6.756;2024-02-26T06:05:34;5.70;23.60
50804;DHT22;37205;51.434;6.756;2024-02-26T06:08:00;5.70;29.00
50804;DHT22;37205;51.434;6.756;2024-02-26T06:10:26;5.70;33.90
50804;DHT22;37205;51.434;6.756;2024-02-26T06:12:51;5.70;24.80
50804;DHT22;37205;51.434;6.756;2024-02-26T06:15:17;5.70;22.60
50804;DHT22;37205;51.434;6.756;2024-02-26T06:17:42;5.60;24.90
50804;DHT22;37205;51.434;6.756;2024-02-26T06:20:08;5.60;27.50
50804;DHT22;37205;51.434;6.756;2024-02-26T06:22:39;5.60;32.80
50804;DHT22;37205;51.434;6.756;2024-02-26T06:25:04;5.70;37.50
50804;DHT22;37205;51.434;6.756;2024-02-26T06:27:30;5.70;39.40
50804;DHT22;37205;51.434;6.756;2024-02-26T06:29:56;5.60;30.60
50804;DHT22;37205;51.434;6.756;2024-02-26T06:32:21;5.60;37.20
50804;DHT22;37205;51.434;6.756;2024-02-26T06:34:48;5.60;40.90
50804;DHT22;37205;51.434;6.756;2024-02-26T06:37:14;5.60;30.60
50804;DHT22;37205;51.434;6.756;2024-02-26T06:39:39;5.60;37.50
50804;DHT22;37205;51.434;6.756;2024-02-26T06:42:06;5.60;41.00
50804;DHT22;37205;51.434;6.756;2024-02-26T06:44:31;5.60;48.70
50804;DHT22;37205;51.434;6.756;2024-02-26T06:47:00;5.60;51.60
50804;DHT22;37205;51.434;6.756;2024-02-26T06:49:27;5.60;55.70
50804;DHT22;37205;51.434;6.756;2024-02-26T06:51:52;5.60;58.20
50804;DHT22;37205;51.434;6.756;2024-02-26T06:54:18;5.60;63.10
50804;DHT22;37205;51.434;6.756;2024-02-26T06:56:43;5.60;60.60
50804;DHT22;37205;51.434;6.756;2024-02-26T06:59:09;5.70;58.90
50804;DHT22;37205;51.434;6.756;2024-02-26T07:01:34;5.70;60.00
50804;DHT22;37205;51.434;6.756;2024-02-26T07:04:00;5.70;62.30
50804;DHT22;37205;51.434;6.756;2024-02-26T07:06:27;5.70;56.30
50804;DHT22;37205;51.434;6.756;2024-02-26T07:08:52;5.70;60.50
50804;DHT22;37205;51.434;6.756;2024-02-26T07:11:18;5.70;62.80
50804;DHT22;37205;51.434;6.756;2024-02-26T07:13:45;5.70;71.80
50804;DHT22;37205;51.434;6.756;2024-02-26T07:16:11;5.70;66.00
50804;DHT22;37205;51.434;6.756;2024-02-26T07:18:37;5.80;69.20
50804;DHT22;37205;51.434;6.756;2024-02-26T07:21:03;5.80;68.00
50804;DHT22;37205;51.434;6.756;2024-02-26T07:23:29;5.80;68.50
50804;DHT22;37205;51.434;6.756;2024-02-26T07:25:54;5.80;66.90
50804;DHT22;37205;51.434;6.756;2024-02-26T07:28:20;5.80;63.10
50804;DHT22;37205;51.434;6.756;2024-02-26T07:30:45;5.80;62.00
50804;DHT22;37205;51.434;6.756;2024-02-26T07:33:11;5.90;59.30
50804;DHT22;37205;51.434;6.756;2024-02-26T07:35:36;5.90;51.60
50804;DHT22;37205;51.434;6.756;2024-02-26T07:38:07;5.90;44.20
50804;DHT22;37205;51.434;6.756;2024-02-26T07:40:32;5.90;45.20
50804;DHT22;37205;51.434;6.756;2024-02-26T07:42:58;5.80;42.30
50804;DHT22;37205;51.434;6.756;2024-02-26T07:45:23;5.90;50.60
50804;DHT22;37205;51.434;6.756;2024-02-26T07:47:49;5.90;48.10
50804;DHT22;37205;51.434;6.756;2024-02-26T07:50:16;5.90;44.50
50804;DHT22;37205;51.434;6.756;2024-02-26T07:52:42;5.90;45.30
50804;DHT22;37205;51.434;6.756;2024-02-26T07:55:07;5.90;44.20
50804;DHT22;37205;51.434;6.756;2024-02-26T07:57:33;5.90;42.90
50804;DHT22;37205;51.434;6.756;2024-02-26T07:59:59;5.90;55.30
50804;DHT22;37205;51.434;6.756;2024-02-26T08:02:25;5.90;52.20
50804;DHT22;37205;51.434;6.756;2024-02-26T08:04:50;5.90;52.00
50804;DHT22;37205;51.434;6.756;2024-02-26T08:07:16;5.90;56.10
50804;DHT22;37205;51.434;6.756;2024-02-26T08:09:41;5.90;58.50
50804;DHT22;37205;51.434;6.756;2024-02-26T08:12:07;5.90;60.40
50804;DHT22;37205;51.434;6.756;2024-02-26T08:14:33;5.90;64.40
50804;DHT22;37205;51.434;6.756;2024-02-26T08:16:58;5.90;68.20
50804;DHT22;37205;51.434;6.756;2024-02-26T08:19:24;5.90;63.80
50804;DHT22;37205;51.434;6.756;2024-02-26T08:21:50;5.90;69.90
50804;DHT22;37205;51.434;6.756;2024-02-26T08:24:16;5.90;74.20
50804;DHT22;37205;51.434;6.756;2024-02-26T08:26:42;6.00;81.50
50804;DHT22;37205;51.434;6.756;2024-02-26T08:29:07;6.00;79.50
50804;DHT22;37205;51.434;6.756;2024-02-26T08:31:33;6.00;82.80
50804;DHT22;37205;51.434;6.756;2024-02-26T08:33:58;6.00;83.30
50804;DHT22;37205;51.434;6.756;2024-02-26T08:36:25;6.00;83.40
50804;DHT22;37205;51.434;6.756;2024-02-26T08:38:51;6.00;84.80
50804;DHT22;37205;51.434;6.756;2024-02-26T08:41:17;6.00;85.40
50804;DHT22;37205;51.434;6.756;2024-02-26T08:43:42;6.00;73.10
50804;DHT22;37205;51.434;6.756;2024-02-26T08:46:12;6.00;80.20
50804;DHT22;37205;51.434;6.756;2024-02-26T08:48:38;6.00;78.10
50804;DHT22;37205;51.434;6.756;2024-02-26T08:51:08;6.00;79.00
50804;DHT22;37205;51.434;6.756;2024-02-26T08:53:34;6.10;84.50
50804;DHT22;37205;51.434;6.756;2024-02-26T08:55:59;6.10;79.70
50804;DHT22;37205;51.434;6.756;2024-02-26T08:58:25;6.20;76.70
50804;DHT22;37205;51.434;6.756;2024-02-26T09:00:50;6.20;74.10
50804;DHT22;37205;51.434;6.756;2024-02-26T09:03:16;6.30;58.00
50804;DHT22;37205;51.434;6.756;2024-02-26T09:05:42;6.20;50.20
50804;DHT22;37205;51.434;6.756;2024-02-26T09:08:07;6.30;49.60
50804;DHT22;37205;51.434;6.756;2024-02-26T09:10:33;6.30;53.10
50804;DHT22;37205;51.434;6.756;2024-02-26T09:12:58;6.30;55.50
50804;DHT22;37205;51.434;6.756;2024-02-26T09:15:24;6.30;57.90
50804;DHT22;37205;51.434;6.756;2024-02-26T09:17:49;6.30;56.80
50804;DHT22;37205;51.434;6.756;2024-02-26T09:20:16;6.40;57.10
50804;DHT22;37205;51.434;6.756;2024-02-26T09:22:45;6.40;46.00
50804;DHT22;37205;51.434;6.756;2024-02-26T09:25:11;6.40;33.60
50804;DHT22;37205;51.434;6.756;2024-02-26T09:27:37;6.40;38.40
50804;DHT22;37205;51.434;6.756;2024-02-26T09:30:02;6.30;29.90
50804;DHT22;37205;51.434;6.756;2024-02-26T09:32:28;6.30;39.50
50804;DHT22;37205;51.434;6.756;2024-02-26T09:34:53;6.30;47.70
50804;DHT22;37205;51.434;6.756;2024-02-26T09:37:19;6.30;51.70
50804;DHT22;37205;51.434;6.756;2024-02-26T09:39:44;6.30;41.80
50804;DHT22;37205;51.434;6.756;2024-02-26T09:42:12;6.30;44.50
50804;DHT22;37205;51.434;6.756;2024-02-26T09:44:40;6.30;53.40
50804;DHT22;37205;51.434;6.756;2024-02-26T09:47:09;6.30;44.50
50804;DHT22;37205;51.434;6.756;2024-02-26T09:49:36;6.30;49.40
50804;DHT22;37205;51.434;6.756;2024-02-26T09:52:04;6.30;48.40
50804;DHT22;37205;51.434;6.756;2024-02-26T09:54:31;6.30;57.90
50804;DHT22;37205;51.434;6.756;2024-02-26T09:56:59;6.30;60.40
50804;DHT22;37205;51.434;6.756;2024-02-26T09:59:29;6.40;53.80
50804;DHT22;37205;51.434;6.756;2024-02-26T10:01:55;6.40;46.20
50804;DHT22;37205;51.434;6.756;2024-02-26T10:04:22;6.40;51.80
50804;DHT22;37205;51.434;6.756;2024-02-26T10:06:49;6.30;35.80
50804;DHT22;37205;51.434;6.756;2024-02-26T10:09:15;6.30;38.80
50804;DHT22;37205;51.434;6.756;2024-02-26T10:11:41;6.40;52.20
50804;DHT22;37205;51.434;6.756;2024-02-26T10:14:08;6.40;53.40
50804;DHT22;37205;51.434;6.756;2024-02-26T10:16:34;6.50;51.50
50804;DHT22;37205;51.434;6.756;2024-02-26T10:19:01;6.50;37.50
50804;DHT22;37205;51.434;6.756;2024-02-26T10:21:27;6.50;39.70
50804;DHT22;37205;51.434;6.756;2024-02-26T10:23:53;6.50;35.40
50804;DHT22;37205;51.434;6.756;2024-02-26T10:26:19;6.50;42.80
50804;DHT22;37205;51.434;6.756;2024-02-26T10:28:45;6.60;42.20
50804;DHT22;37205;51.434;6.756;2024-02-26T10:31:13;6.50;27.50
50804;DHT22;37205;51.434;6.756;2024-02-26T10:33:39;6.60;29.80
50804;DHT22;37205;51.434;6.756;2024-02-26T10:36:06;6.60;33.60
50804;DHT22;37205;51.434;6.756;2024-02-26T10:38:33;6.60;31.40
50804;DHT22;37205;51.434;6.756;2024-02-26T10:40:59;6.60;38.60
50804;DHT22;37205;51.434;6.756;2024-02-26T10:43:27;6.60;42.40
50804;DHT22;37205;51.434;6.756;2024-02-26T10:45:55;6.60;41.10
50804;DHT22;37205;51.434;6.756;2024-02-26T10:48:20;6.70;52.20
50804;DHT22;37205;51.434;6.756;2024-02-26T10:50:47;6.60;51.60
50804;DHT22;37205;51.434;6.756;2024-02-26T10:53:17;6.70;60.80
50804;DHT22;37205;51.434;6.756;2024-02-26T10:55:51;6.70;72.90
50804;DHT22;37205;51.434;6.756;2024-02-26T10:58:18;6.80;74.10
50804;DHT22;37205;51.434;6.756;2024-02-26T11:00:45;6.90;59.70
50804;DHT22;37205;51.434;6.756;2024-02-26T11:03:13;6.90;58.40
50804;DHT22;37205;51.434;6.756;2024-02-26T11:05:41;6.90;44.70
50804;DHT22;37205;51.434;6.756;2024-02-26T11:08:07;6.90;47.60
50804;DHT22;37205;51.434;6.756;2024-02-26T11:10:33;7.00;40.50
50804;DHT22;37205;51.434;6.756;2024-02-26T11:13:01;7.00;39.40
50804;DHT22;37205;51.434;6.756;2024-02-26T11:15:28;7.00;29.10
50804;DHT22;37205;51.434;6.756;2024-02-26T11:17:55;7.10;33.90
50804;DHT22;37205;51.434;6.756;2024-02-26T11:20:23;7.20;29.90
50804;DHT22;37205;51.434;6.756;2024-02-26T11:22:48;7.20;20.60
50804;DHT22;37205;51.434;6.756;2024-02-26T11:25:14;7.20;18.10
50804;DHT22;37205;51.434;6.756;2024-02-26T11:27:52;7.30;22.00
50804;DHT22;37205;51.434;6.756;2024-02-26T11:30:19;7.40;5.10
50804;DHT22;37205;51.434;6.756;2024-02-26T11:32:46;7.40;1.00
50804;DHT22;37205;51.434;6.756;2024-02-26T11:35:12;7.40;1.00
50804;DHT22;37205;51.434;6.756;2024-02-26T11:37:41;7.50;1.00
50804;DHT22;37205;51.434;6.756;2024-02-26T11:40:11;7.50;1.00
50804;DHT22;37205;51.434;6.756;2024-02-26T11:42:45;7.50;1.00
50804;DHT22;37205;51.434;6.756;2024-02-26T11:48:03;7.60;1.00
50804;DHT22;37205;51.434;6.756;2024-02-26T11:50:36;7.50;1.00
50804;DHT22;37205;51.434;6.756;2024-02-26T11:53:27;7.60;1.00
50804;DHT22;37205;51.434;6.756;2024-02-26T11:56:25;7.50;1.00
50804;DHT22;37205;51.434;6.756;2024-02-26T11:59:04;7.50;1.00
50804;DHT22;37205;51.434;6.756;2024-02-26T12:04:06;7.70;1.00
50804;DHT22;37205;51.434;6.756;2024-02-26T12:06:43;7.80;1.00
50804;DHT22;37205;51.434;6.756;2024-02-26T12:09:10;7.80;1.00
50804;DHT22;37205;51.434;6.756;2024-02-26T12:11:39;7.90;1.00
50804;DHT22;37205;51.434;6.756;2024-02-26T12:14:07;8.00;1.00
50804;DHT22;37205;51.434;6.756;2024-02-26T12:16:39;8.00;1.00
50804;DHT22;37205;51.434;6.756;2024-02-26T12:19:06;8.00;1.00
50804;DHT22;37205;51.434;6.756;2024-02-26T12:21:36;8.10;1.00
50804;DHT22;37205;51.434;6.756;2024-02-26T12:26:36;8.10;1.00
50804;DHT22;37205;51.434;6.756;2024-02-26T12:29:01;8.20;1.00
50804;DHT22;37205;51.434;6.756;2024-02-26T12:31:27;8.10;1.00
50804;DHT22;37205;51.434;6.756;2024-02-26T12:33:54;8.10;1.00
50804;DHT22;37205;51.434;6.756;2024-02-26T12:36:21;8.10;1.00
50804;DHT22;37205;51.434;6.756;2024-02-26T12:38:46;8.10;1.00
50804;DHT22;37205;51.434;6.756;2024-02-26T12:41:13;8.10;1.00
50804;DHT22;37205;51.434;6.756;2024-02-26T12:43:38;8.00;1.00
50804;DHT22;37205;51.434;6.756;2024-02-26T12:46:04;8.00;1.00
50804;DHT22;37205;51.434;6.756;2024-02-26T12:48:29;8.00;1.00
50804;DHT22;37205;51.434;6.756;2024-02-26T12:50:55;7.90;1.00
50804;DHT22;37205;51.434;6.756;2024-02-26T12:53:21;7.90;1.00
50804;DHT22;37205;51.434;6.756;2024-02-26T12:55:47;7.90;1.00
50804;DHT22;37205;51.434;6.756;2024-02-26T12:58:14;7.90;1.00
50804;DHT22;37205;51.434;6.756;2024-02-26T13:00:40;7.90;1.00
50804;DHT22;37205;51.434;6.756;2024-02-26T13:03:06;7.80;1.00
50804;DHT22;37205;51.434;6.756;2024-02-26T13:05:32;7.90;1.00
50804;DHT22;37205;51.434;6.756;2024-02-26T13:07:58;7.90;1.00
50804;DHT22;37205;51.434;6.756;2024-02-26T13:10:24;7.80;1.00
50804;DHT22;37205;51.434;6.756;2024-02-26T13:12:50;7.80;1.00
50804;DHT22;37205;51.434;6.756;2024-02-26T13:15:19;7.80;1.00
50804;DHT22;37205;51.434;6.756;2024-02-26T13:17:46;7.80;1.00
50804;DHT22;37205;51.434;6.756;2024-02-26T13:20:12;7.90;1.00
50804;DHT22;37205;51.434;6.756;2024-02-26T13:22:40;7.90;1.00
50804;DHT22;37205;51.434;6.756;2024-02-26T13:25:06;7.90;1.00
50804;DHT22;37205;51.434;6.756;2024-02-26T13:27:34;7.90;99.90
50804;DHT22;37205;51.434;6.756;2024-02-26T13:30:10;7.90;99.90
50804;DHT22;37205;51.434;6.756;2024-02-26T13:32:37;7.90;99.90
50804;DHT22;37205;51.434;6.756;2024-02-26T13:35:10;7.90;99.90
50804;DHT22;37205;51.434;6.756;2024-02-26T13:37:36;8.00;99.90
50804;DHT22;37205;51.434;6.756;2024-02-26T13:40:07;8.00;99.90
50804;DHT22;37205;51.434;6.756;2024-02-26T13:42:34;8.00;99.90
50804;DHT22;37205;51.434;6.756;2024-02-26T13:44:59;8.00;99.90
50804;DHT22;37205;51.434;6.756;2024-02-26T13:47:25;8.00;99.90
50804;DHT22;37205;51.434;6.756;2024-02-26T13:49:50;8.00;99.90
50804;DHT22;37205;51.434;6.756;2024-02-26T13:52:16;8.00;99.90
50804;DHT22;37205;51.434;6.756;2024-02-26T13:54:41;8.00;99.90
50804;DHT22;37205;51.434;6.756;2024-02-26T13:57:07;8.00;99.90
50804;DHT22;37205;51.434;6.756;2024-02-26T13:59:34;8.00;99.90
50804;DHT22;37205;51.434;6.756;2024-02-26T14:01:59;8.00;99.90
50804;DHT22;37205;51.434;6.756;2024-02-26T14:04:25;8.10;99.90
50804;DHT22;37205;51.434;6.756;2024-02-26T14:06:50;8.10;99.90
50804;DHT22;37205;51.434;6.756;2024-02-26T14:09:16;8.10;99.90
50804;DHT22;37205;51.434;6.756;2024-02-26T14:11:45;8.10;99.90
50804;DHT22;37205;51.434;6.756;2024-02-26T14:14:10;8.10;99.90
50804;DHT22;37205;51.434;6.756;2024-02-26T14:16:36;8.00;1.00
50804;DHT22;37205;51.434;6.756;2024-02-26T14:19:02;8.00;99.90
50804;DHT22;37205;51.434;6.756;2024-02-26T14:21:28;8.00;99.90
50804;DHT22;37205;51.434;6.756;2024-02-26T14:23:55;7.90;96.30
50804;DHT22;37205;51.434;6.756;2024-02-26T14:26:22;8.00;1.00
50804;DHT22;37205;51.434;6.756;2024-02-26T14:28:47;8.00;99.90
50804;DHT22;37205;51.434;6.756;2024-02-26T14:31:13;7.90;3.00
50804;DHT22;37205;51.434;6.756;2024-02-26T14:33:39;7.90;99.90
50804;DHT22;37205;51.434;6.756;2024-02-26T14:36:06;7.90;1.00
50804;DHT22;37205;51.434;6.756;2024-02-26T14:38:32;7.90;99.90
50804;DHT22;37205;51.434;6.756;2024-02-26T14:40:58;7.90;99.90
50804;DHT22;37205;51.434;6.756;2024-02-26T14:43:23;7.80;99.90
50804;DHT22;37205;51.434;6.756;2024-02-26T14:45:49;7.80;99.90
50804;DHT22;37205;51.434;6.756;2024-02-26T14:48:15;7.80;99.90
50804;DHT22;37205;51.434;6.756;2024-02-26T14:50:40;7.90;99.90
50804;DHT22;37205;51.434;6.756;2024-02-26T14:53:06;7.90;99.90
50804;DHT22;37205;51.434;6.756;2024-02-26T14:55:32;7.90;99.30
50804;DHT22;37205;51.434;6.756;2024-02-26T14:57:58;7.90;86.30
50804;DHT22;37205;51.434;6.756;2024-02-26T15:00:23;7.80;68.30
50804;DHT22;37205;51.434;6.756;2024-02-26T15:02:49;7.80;97.40
50804;DHT22;37205;51.434;6.756;2024-02-26T15:05:14;7.70;99.90
50804;DHT22;37205;51.434;6.756;2024-02-26T15:07:41;7.70;59.40
50804;DHT22;37205;51.434;6.756;2024-02-26T15:10:07;7.70;99.90
50804;DHT22;37205;51.434;6.756;2024-02-26T15:12:33;7.70;93.40
50804;DHT22;37205;51.434;6.756;2024-02-26T15:14:59;7.70;99.90
50804;DHT22;37205;51.434;6.756;2024-02-26T15:17:27;7.70;99.90
50804;DHT22;37205;51.434;6.756;2024-02-26T15:19:53;7.70;1.00
50804;DHT22;37205;51.434;6.756;2024-02-26T15:22:19;7.70;99.90
50804;DHT22;37205;51.434;6.756;2024-02-26T15:24:44;7.70;99.90
50804;DHT22;37205;51.434;6.756;2024-02-26T15:27:12;7.70;99.90
50804;DHT22;37205;51.434;6.756;2024-02-26T15:29:37;7.70;99.90
50804;DHT22;37205;51.434;6.756;2024-02-26T15:32:05;7.70;4.00
50804;DHT22;37205;51.434;6.756;2024-02-26T15:34:30;7.70;39.00
50804;DHT22;37205;51.434;6.756;2024-02-26T15:36:56;7.70;18.40
50804;DHT22;37205;51.434;6.756;2024-02-26T15:39:21;7.60;99.90
50804;DHT22;37205;51.434;6.756;2024-02-26T15:41:47;7.60;99.90
50804;DHT22;37205;51.434;6.756;2024-02-26T15:44:12;7.60;99.90
50804;DHT22;37205;51.434;6.756;2024-02-26T15:46:41;7.50;99.90
50804;DHT22;37205;51.434;6.756;2024-02-26T15:49:07;7.60;99.90
50804;DHT22;37205;51.434;6.756;2024-02-26T15:51:32;7.50;99.90